Renner Field-Goodland Municipal Airport
KGLD : rendu visible

Aérodrome :











RETROUVEZ-NOUS SUR...

 
LOGIN :

S'inscrire | Disclaimer

   EN    FR    IT 

 









Légende :    VFR   VFR Marginal   IFR   IFR Intensif   IFR Très Intensif
Visi : 
Plafond : 
>= 8 km
>= 3000ft
5 à 8 km
1000 à 3000 ft
1500m à 5 km
500 à 1000 ft
800 à 1500m
200 à 500 ft
< 800m
< 200 ft
Symboles :   Orages  Brouillard  Fortes neiges  Fortes précipitations  Vent > 20 kt






- Altitude de l'aérodrome : 3656 ft


KGLD - Renner Field-Goodland Municipal

DERNIER METAR :
  • 280453Z AUTO 18006KT 10SM SCT110 13/09 A3007 RMK AO2 SLP148 T01330089

METARs EXPIRÉS :
  • 280353Z AUTO 18005KT 10SM FEW100 14/09 A3005 RMK AO2 SLP145 T01390094
  • 280253Z AUTO 12009KT 10SM CLR 16/09 A3003 RMK AO2 SLP136 T01560094 53015

TAF KGLD
Valide du 28 à 00h jusqu'au 29 à 00h UTC


272320Z 2800/2824 05010KT P6SM FEW060 SCT250
FM280300 VRB04KT P6SM FEW090 FEW250
FM281300 34007KT P6SM SCT060 BKN110
FM281900 03010KT P6SM FEW070 SCT110
FIR KZDV / Amérique du Nord



MET'MAP, la Météo Aéronautique d'un coup d'oeil ! - Copyright ORBIFLY Décembre 2007 - Disclaimer

ORBIFLY MET'MAP TEAM :

Programmation & Développement : Alexandra Zaïnal
Sur une idée originale de : Baudouin d'Aumeries
Assistance à la programmation : Marc-Olivier Méhu
Soutien technique & logistique : Manuel Goepfert

Contact : metmap@orbifly.com




SOURCES & CREDITS :

   NOAA       Earth
Advisory